createdAt,value
2022-10-06T00:17:28.390Z,20.84
2022-10-06T00:20:45.375Z,20.74
2022-10-06T00:34:33.294Z,20.65
2022-10-06T00:37:35.575Z,20.60
2022-10-06T00:55:11.079Z,20.49
2022-10-06T01:05:00.598Z,20.42
2022-10-06T01:08:31.172Z,20.36
2022-10-06T01:33:40.419Z,20.05
2022-10-06T01:37:03.124Z,19.95
2022-10-06T01:54:41.540Z,19.74
2022-10-06T01:57:40.864Z,19.65
2022-10-06T02:11:28.988Z,19.61
2022-10-06T02:14:07.562Z,19.52
2022-10-06T02:27:16.104Z,19.52
2022-10-06T02:30:40.150Z,19.49
2022-10-06T02:48:13.911Z,19.43
2022-10-06T03:20:49.475Z,19.30
2022-10-06T03:23:49.871Z,19.26
2022-10-06T03:56:08.779Z,19.41
2022-10-06T04:09:59.373Z,19.23
2022-10-06T04:13:23.144Z,19.14
2022-10-06T04:27:22.807Z,19.02
2022-10-06T04:30:39.911Z,18.94
2022-10-06T04:47:35.448Z,18.82
2022-10-06T05:00:41.650Z,18.73
2022-10-06T05:14:29.313Z,18.68
2022-10-06T05:17:57.754Z,18.62
2022-10-06T05:42:39.561Z,18.42
2022-10-06T06:00:13.477Z,18.34
2022-10-06T06:03:41.077Z,18.28
2022-10-06T06:54:21.577Z,18.41
2022-10-06T07:11:31.138Z,18.59
2022-10-06T07:21:49.853Z,18.73
2022-10-06T07:32:52.874Z,18.90
2022-10-06T07:53:50.048Z,19.57
2022-10-06T08:11:25.911Z,19.85
2022-10-06T08:14:57.260Z,19.86
2022-10-06T08:28:48.468Z,20.22
2022-10-06T08:32:20.081Z,20.26
2022-10-06T08:45:49.327Z,20.67
2022-10-06T08:48:58.287Z,20.69
2022-10-06T09:10:27.294Z,20.90
2022-10-06T09:13:21.980Z,20.89
2022-10-06T09:42:22.859Z,21.25
2022-10-06T09:52:16.472Z,21.35
2022-10-06T09:54:43.710Z,21.34
2022-10-06T09:57:49.119Z,21.28
2022-10-06T10:07:43.508Z,21.40
2022-10-06T10:11:05.696Z,21.39
2022-10-06T10:25:12.110Z,21.66
2022-10-06T10:46:04.101Z,21.81
2022-10-06T11:03:44.473Z,22.06
2022-10-06T11:06:34.769Z,22.11
2022-10-06T11:35:19.117Z,22.31
2022-10-06T11:38:16.089Z,22.26
2022-10-06T11:44:39.882Z,22.27
2022-10-06T11:54:40.263Z,22.58
2022-10-06T12:29:35.115Z,22.71
2022-10-06T12:32:24.549Z,22.66
2022-10-06T12:34:58.946Z,22.66
2022-10-06T12:37:41.613Z,22.65
2022-10-06T12:40:42.022Z,22.65
2022-10-06T12:43:23.385Z,22.69
2022-10-06T12:49:53.807Z,22.79
2022-10-06T12:57:15.643Z,22.81
2022-10-06T12:59:41.997Z,22.93
2022-10-06T13:02:20.605Z,22.99
2022-10-06T13:04:57.281Z,23.05
2022-10-06T13:07:28.926Z,23.12
2022-10-06T13:10:13.840Z,23.15
2022-10-06T13:12:47.138Z,23.24
2022-10-06T13:15:19.489Z,23.29
2022-10-06T13:18:00.151Z,23.32
2022-10-06T13:20:33.320Z,23.35
2022-10-06T13:23:02.984Z,23.38
2022-10-06T13:25:35.093Z,23.36
2022-10-06T13:28:02.389Z,23.38
2022-10-06T13:30:29.116Z,23.39
2022-10-06T13:32:58.126Z,23.40
2022-10-06T13:35:27.330Z,23.39
2022-10-06T13:37:55.200Z,23.40
2022-10-06T13:40:44.496Z,23.36
2022-10-06T13:43:17.918Z,23.39
2022-10-06T13:45:47.236Z,23.43
2022-10-06T13:48:18.727Z,23.43
2022-10-06T13:50:54.152Z,23.44
2022-10-06T13:53:27.228Z,23.47
2022-10-06T13:55:54.577Z,23.52
2022-10-06T13:58:24.669Z,23.55
2022-10-06T14:00:57.146Z,23.52
2022-10-06T14:03:29.357Z,23.53
2022-10-06T14:06:18.940Z,23.49
2022-10-06T14:08:50.805Z,23.50
2022-10-06T14:11:27.865Z,23.46
2022-10-06T14:14:03.067Z,23.46
2022-10-06T14:16:29.857Z,23.48
2022-10-06T14:19:01.725Z,23.48
2022-10-06T14:21:45.586Z,23.50
2022-10-06T14:24:15.025Z,23.52
2022-10-06T14:26:43.626Z,23.54
2022-10-06T14:29:12.744Z,23.60
2022-10-06T14:31:39.148Z,23.66
2022-10-06T14:34:06.020Z,23.65
2022-10-06T14:36:36.350Z,23.64
2022-10-06T14:39:04.728Z,23.62
2022-10-06T14:41:31.749Z,23.63
2022-10-06T14:44:06.032Z,23.63
2022-10-06T14:46:33.468Z,23.64
2022-10-06T14:49:04.644Z,23.64
2022-10-06T14:51:34.441Z,23.63
2022-10-06T14:54:03.634Z,23.61
2022-10-06T14:56:35.223Z,23.58
2022-10-06T14:59:05.544Z,23.59
2022-10-06T15:01:36.775Z,23.57
2022-10-06T15:04:09.688Z,23.55
2022-10-06T15:06:54.729Z,23.56
2022-10-06T15:09:21.462Z,23.55
2022-10-06T15:11:47.877Z,23.53
2022-10-06T15:14:14.591Z,23.51
2022-10-06T15:16:43.641Z,23.48
2022-10-06T15:19:14.290Z,23.46
2022-10-06T15:21:46.979Z,23.43
2022-10-06T15:24:18.683Z,23.40
2022-10-06T15:27:04.910Z,23.41
2022-10-06T15:29:33.475Z,23.39
2022-10-06T15:32:02.090Z,23.38
2022-10-06T15:34:30.387Z,23.38
2022-10-06T15:36:58.161Z,23.35
2022-10-06T15:39:27.300Z,23.31
2022-10-06T15:41:54.355Z,23.29
2022-10-06T15:44:21.466Z,23.27
2022-10-06T15:46:49.314Z,23.25
2022-10-06T15:49:24.361Z,23.22
2022-10-06T15:51:56.903Z,23.18
2022-10-06T15:54:39.360Z,23.13
2022-10-06T15:57:15.073Z,23.14
2022-10-06T15:59:44.472Z,23.13
2022-10-06T16:02:16.053Z,23.08
2022-10-06T16:04:43.327Z,23.06
2022-10-06T16:07:17.857Z,23.01
2022-10-06T16:09:49.211Z,22.97
2022-10-06T16:12:21.503Z,22.93
2022-10-06T16:14:48.516Z,22.91
2022-10-06T16:17:15.480Z,22.86
2022-10-06T16:19:42.602Z,22.82
2022-10-06T16:22:12.148Z,22.78
2022-10-06T16:24:38.992Z,22.74
2022-10-06T16:27:08.816Z,22.70
2022-10-06T16:29:36.197Z,22.66
2022-10-06T16:32:02.667Z,22.60
2022-10-06T16:34:31.382Z,22.56
2022-10-06T16:37:07.333Z,22.51
2022-10-06T16:39:33.789Z,22.47
2022-10-06T16:42:01.111Z,22.43
2022-10-06T16:44:27.398Z,22.38
2022-10-06T16:46:54.001Z,22.33
2022-10-06T16:49:21.273Z,22.25
2022-10-06T16:51:48.897Z,22.19
2022-10-06T16:54:17.285Z,22.14
2022-10-06T16:56:48.912Z,22.06
2022-10-06T16:59:20.215Z,21.99
2022-10-06T17:01:47.749Z,21.94
2022-10-06T17:04:20.089Z,21.86
2022-10-06T17:06:56.696Z,21.78
2022-10-06T17:09:25.858Z,21.75
2022-10-06T17:12:00.729Z,21.66
2022-10-06T17:14:29.257Z,21.63
2022-10-06T17:16:58.172Z,21.59
2022-10-06T17:19:27.249Z,21.55
2022-10-06T17:21:58.498Z,21.49
2022-10-06T17:24:27.736Z,21.42
2022-10-06T17:26:54.165Z,21.37
2022-10-06T17:29:21.959Z,21.33
2022-10-06T17:31:51.041Z,21.25
2022-10-06T17:34:21.857Z,21.19
2022-10-06T17:36:51.783Z,21.13
2022-10-06T17:39:21.157Z,21.07
2022-10-06T17:41:49.755Z,21.02
2022-10-06T17:44:21.077Z,20.98
2022-10-06T17:46:48.136Z,20.97
2022-10-06T17:49:16.367Z,20.90
2022-10-06T17:51:45.816Z,20.85
2022-10-06T17:54:16.890Z,20.78
2022-10-06T17:56:45.822Z,20.73
2022-10-06T17:59:18.361Z,20.64
2022-10-06T18:01:45.309Z,20.59
2022-10-06T18:04:17.316Z,20.51
2022-10-06T18:06:48.478Z,20.45
2022-10-06T18:09:15.764Z,20.39
2022-10-06T18:11:44.478Z,20.33
2022-10-06T18:14:13.272Z,20.26
2022-10-06T18:16:45.809Z,20.18
2022-10-06T18:19:26.223Z,20.14
2022-10-06T18:21:56.253Z,20.09
2022-10-06T18:24:25.589Z,20.03
2022-10-06T18:26:54.140Z,19.98
2022-10-06T18:29:22.036Z,19.97
2022-10-06T18:31:50.619Z,19.95
2022-10-06T18:36:09.971Z,19.91
2022-10-06T18:37:04.472Z,19.87
2022-10-06T18:39:31.956Z,19.80
2022-10-06T18:42:02.394Z,19.71
2022-10-06T18:44:47.547Z,19.65
2022-10-06T18:47:33.099Z,19.58
2022-10-06T18:49:59.495Z,19.50
2022-10-06T18:52:26.011Z,19.44
2022-10-06T18:54:54.687Z,19.36
2022-10-06T18:57:26.576Z,19.30
2022-10-06T18:59:54.965Z,19.27
2022-10-06T19:02:21.358Z,19.18
2022-10-06T19:04:49.023Z,19.10
2022-10-06T19:07:18.486Z,19.01
2022-10-06T19:09:46.809Z,18.95
2022-10-06T19:12:13.417Z,18.89
2022-10-06T19:14:46.857Z,18.87
2022-10-06T19:17:15.430Z,18.78
2022-10-06T19:19:45.263Z,18.72
2022-10-06T19:22:14.140Z,18.67
2022-10-06T19:24:43.793Z,18.58
2022-10-06T19:27:12.774Z,18.48
2022-10-06T19:29:45.534Z,18.39
2022-10-06T19:32:15.299Z,18.30
2022-10-06T19:34:42.223Z,18.21
2022-10-06T19:37:08.713Z,18.16
2022-10-06T19:39:40.298Z,18.09
2022-10-06T19:42:28.371Z,18.06
2022-10-06T19:44:57.262Z,18.02
2022-10-06T19:47:25.115Z,17.98
2022-10-06T19:49:57.039Z,17.93
2022-10-06T19:52:25.009Z,17.92
2022-10-06T19:54:52.672Z,17.88
2022-10-06T19:57:18.955Z,17.85
2022-10-06T19:59:49.717Z,17.82
2022-10-06T20:02:16.827Z,17.79
2022-10-06T20:04:43.432Z,17.75
2022-10-06T20:07:09.743Z,17.71
2022-10-06T20:09:36.115Z,17.68
2022-10-06T20:12:02.462Z,17.65
2022-10-06T20:14:31.051Z,17.60
2022-10-06T20:16:58.167Z,17.60
2022-10-06T20:19:25.368Z,17.60
2022-10-06T20:21:53.867Z,17.56
2022-10-06T20:24:23.042Z,17.50
2022-10-06T20:26:53.069Z,17.46
2022-10-06T20:29:25.488Z,17.43
2022-10-06T20:32:02.259Z,17.37
2022-10-06T20:34:33.218Z,17.38
2022-10-06T20:37:04.989Z,17.34
2022-10-06T20:39:51.919Z,17.33
2022-10-06T20:42:19.927Z,17.29
2022-10-06T20:44:46.870Z,17.28
2022-10-06T20:47:14.161Z,17.24
2022-10-06T20:49:42.403Z,17.22
2022-10-06T20:52:14.027Z,17.19
2022-10-06T20:54:41.099Z,17.18
2022-10-06T20:57:09.440Z,17.15
2022-10-06T20:59:41.644Z,17.12
2022-10-06T21:02:12.002Z,17.10
2022-10-06T21:04:41.893Z,17.06
2022-10-06T21:07:08.441Z,17.06
2022-10-06T21:09:34.887Z,17.05
2022-10-06T21:12:05.304Z,17.05
2022-10-06T21:14:31.875Z,17.05
2022-10-06T21:16:58.384Z,17.05
2022-10-06T21:19:29.325Z,17.05
2022-10-06T21:21:56.332Z,17.07
2022-10-06T21:24:22.903Z,17.09
2022-10-06T21:26:52.387Z,17.09
2022-10-06T21:29:20.566Z,17.08
2022-10-06T21:31:49.158Z,17.06
2022-10-06T21:34:18.693Z,17.07
2022-10-06T21:36:45.299Z,17.10
2022-10-06T21:39:13.535Z,17.09
2022-10-06T21:41:41.121Z,17.07
2022-10-06T21:44:14.413Z,17.07
2022-10-06T21:46:56.325Z,17.03
2022-10-06T21:49:28.630Z,17.05
2022-10-06T21:51:56.448Z,17.05
2022-10-06T21:54:26.945Z,17.04
2022-10-06T21:56:53.632Z,17.02
2022-10-06T21:59:20.534Z,16.99
2022-10-06T22:01:50.350Z,16.98
2022-10-06T22:04:17.166Z,16.97
2022-10-06T22:06:45.611Z,16.95
2022-10-06T22:09:15.583Z,16.94
2022-10-06T22:11:43.112Z,16.95
2022-10-06T22:14:15.275Z,16.94
2022-10-06T22:16:42.348Z,16.94
2022-10-06T22:19:11.757Z,16.94
2022-10-06T22:21:43.108Z,16.92
2022-10-06T22:24:12.171Z,16.92
2022-10-06T22:26:42.304Z,16.91
2022-10-06T22:29:12.488Z,16.89
2022-10-06T22:31:40.969Z,16.87
2022-10-06T22:34:07.943Z,16.86
2022-10-06T22:36:35.341Z,16.86
2022-10-06T22:39:02.688Z,16.82
2022-10-06T22:41:29.500Z,16.78
2022-10-06T22:43:57.916Z,16.73
2022-10-06T22:46:26.144Z,16.70
2022-10-06T22:48:53.107Z,16.68
2022-10-06T22:51:19.585Z,16.64
2022-10-06T22:53:46.581Z,16.61
2022-10-06T22:56:13.419Z,16.58
2022-10-06T22:58:40.061Z,16.56
2022-10-06T23:01:11.671Z,16.53
2022-10-06T23:03:39.217Z,16.51
2022-10-06T23:06:06.844Z,16.50
2022-10-06T23:08:35.341Z,16.48
2022-10-06T23:11:10.975Z,16.44
2022-10-06T23:13:37.597Z,16.43
2022-10-06T23:16:07.983Z,16.38
2022-10-06T23:18:37.015Z,16.36
2022-10-06T23:21:09.274Z,16.31
2022-10-06T23:23:36.741Z,16.29
2022-10-06T23:26:05.570Z,16.26
2022-10-06T23:28:32.999Z,16.24
2022-10-06T23:30:59.707Z,16.20
2022-10-06T23:33:28.887Z,16.17
2022-10-06T23:36:00.003Z,16.15
2022-10-06T23:38:27.337Z,16.12
2022-10-06T23:40:54.783Z,16.10
2022-10-06T23:43:22.962Z,16.05
2022-10-06T23:45:50.400Z,16.03
2022-10-06T23:48:17.741Z,15.98
2022-10-06T23:50:55.300Z,15.93
2022-10-06T23:53:21.763Z,15.92
2022-10-06T23:55:48.428Z,15.87
2022-10-06T23:58:14.858Z,15.84
